sensor_id;sensor_type;location;lat;lon;timestamp;P1;durP1;ratioP1;P2;durP2;ratioP2
1939;SDS011;1232;48.008;7.864;2022-07-29T06:54:55;21.60;;;19.80;;
1939;SDS011;1232;48.008;7.864;2022-07-29T06:57:21;21.10;;;19.00;;
1939;SDS011;1232;48.008;7.864;2022-07-29T06:59:46;20.93;;;19.27;;
1939;SDS011;1232;48.008;7.864;2022-07-29T07:02:12;21.03;;;19.40;;
1939;SDS011;1232;48.008;7.864;2022-07-29T07:04:38;21.33;;;19.40;;
1939;SDS011;1232;48.008;7.864;2022-07-29T07:07:07;21.23;;;19.73;;
1939;SDS011;1232;48.008;7.864;2022-07-29T07:09:32;20.60;;;19.10;;
1939;SDS011;1232;48.008;7.864;2022-07-29T07:11:58;20.77;;;19.27;;
1939;SDS011;1232;48.008;7.864;2022-07-29T07:14:23;21.23;;;19.07;;
1939;SDS011;1232;48.008;7.864;2022-07-29T07:16:51;20.20;;;18.80;;
1939;SDS011;1232;48.008;7.864;2022-07-29T07:19:17;20.30;;;18.90;;
1939;SDS011;1232;48.008;7.864;2022-07-29T07:21:44;20.10;;;18.80;;
1939;SDS011;1232;48.008;7.864;2022-07-29T07:24:09;20.23;;;18.90;;
1939;SDS011;1232;48.008;7.864;2022-07-29T07:26:35;20.10;;;18.70;;
1939;SDS011;1232;48.008;7.864;2022-07-29T07:29:03;20.80;;;19.40;;
1939;SDS011;1232;48.008;7.864;2022-07-29T07:31:30;20.93;;;19.37;;
1939;SDS011;1232;48.008;7.864;2022-07-29T07:33:56;21.40;;;19.47;;
1939;SDS011;1232;48.008;7.864;2022-07-29T07:36:22;20.83;;;19.00;;
1939;SDS011;1232;48.008;7.864;2022-07-29T07:38:48;20.73;;;19.03;;
1939;SDS011;1232;48.008;7.864;2022-07-29T07:41:14;20.40;;;19.20;;
1939;SDS011;1232;48.008;7.864;2022-07-29T07:43:40;20.23;;;18.83;;
1939;SDS011;1232;48.008;7.864;2022-07-29T07:46:06;20.50;;;19.00;;
1939;SDS011;1232;48.008;7.864;2022-07-29T07:48:31;19.93;;;18.63;;
1939;SDS011;1232;48.008;7.864;2022-07-29T07:50:59;20.20;;;18.50;;
1939;SDS011;1232;48.008;7.864;2022-07-29T07:53:25;20.23;;;18.77;;
1939;SDS011;1232;48.008;7.864;2022-07-29T07:55:51;20.30;;;19.00;;
1939;SDS011;1232;48.008;7.864;2022-07-29T07:58:17;20.40;;;19.00;;
1939;SDS011;1232;48.008;7.864;2022-07-29T08:00:42;20.93;;;19.20;;
1939;SDS011;1232;48.008;7.864;2022-07-29T08:03:08;19.50;;;18.20;;
1939;SDS011;1232;48.008;7.864;2022-07-29T08:05:37;20.40;;;18.90;;
1939;SDS011;1232;48.008;7.864;2022-07-29T08:08:03;20.47;;;18.97;;
1939;SDS011;1232;48.008;7.864;2022-07-29T08:10:29;20.33;;;19.07;;
1939;SDS011;1232;48.008;7.864;2022-07-29T08:13:13;20.80;;;19.30;;
1939;SDS011;1232;48.008;7.864;2022-07-29T08:15:39;20.00;;;18.70;;
1939;SDS011;1232;48.008;7.864;2022-07-29T08:18:06;20.47;;;19.17;;
1939;SDS011;1232;48.008;7.864;2022-07-29T08:20:32;20.00;;;18.60;;
1939;SDS011;1232;48.008;7.864;2022-07-29T08:23:00;19.83;;;18.63;;
1939;SDS011;1232;48.008;7.864;2022-07-29T08:25:26;20.43;;;19.20;;
1939;SDS011;1232;48.008;7.864;2022-07-29T08:27:52;19.60;;;18.40;;
1939;SDS011;1232;48.008;7.864;2022-07-29T08:30:18;19.70;;;18.50;;
1939;SDS011;1232;48.008;7.864;2022-07-29T08:32:43;19.93;;;18.53;;
1939;SDS011;1232;48.008;7.864;2022-07-29T08:35:09;19.50;;;18.27;;
1939;SDS011;1232;48.008;7.864;2022-07-29T08:37:34;19.83;;;18.53;;
1939;SDS011;1232;48.008;7.864;2022-07-29T08:40:00;20.33;;;18.87;;
1939;SDS011;1232;48.008;7.864;2022-07-29T08:42:26;19.43;;;18.23;;
1939;SDS011;1232;48.008;7.864;2022-07-29T08:44:51;19.73;;;18.37;;
1939;SDS011;1232;48.008;7.864;2022-07-29T08:47:18;19.70;;;18.40;;
1939;SDS011;1232;48.008;7.864;2022-07-29T08:49:44;20.60;;;19.10;;
1939;SDS011;1232;48.008;7.864;2022-07-29T08:52:12;19.80;;;18.30;;
1939;SDS011;1232;48.008;7.864;2022-07-29T08:54:39;19.13;;;18.03;;
1939;SDS011;1232;48.008;7.864;2022-07-29T08:57:08;20.40;;;19.13;;
1939;SDS011;1232;48.008;7.864;2022-07-29T08:59:37;19.70;;;18.40;;
1939;SDS011;1232;48.008;7.864;2022-07-29T09:02:06;20.20;;;18.90;;
1939;SDS011;1232;48.008;7.864;2022-07-29T09:04:46;19.90;;;18.47;;
1939;SDS011;1232;48.008;7.864;2022-07-29T09:07:15;19.17;;;18.07;;
1939;SDS011;1232;48.008;7.864;2022-07-29T09:09:44;19.63;;;18.40;;
1939;SDS011;1232;48.008;7.864;2022-07-29T09:12:10;20.33;;;18.93;;
1939;SDS011;1232;48.008;7.864;2022-07-29T09:14:39;19.63;;;18.40;;
1939;SDS011;1232;48.008;7.864;2022-07-29T09:17:05;19.53;;;18.23;;
1939;SDS011;1232;48.008;7.864;2022-07-29T09:19:32;20.20;;;18.80;;
1939;SDS011;1232;48.008;7.864;2022-07-29T09:22:02;19.10;;;18.00;;
1939;SDS011;1232;48.008;7.864;2022-07-29T09:26:59;19.83;;;18.43;;
1939;SDS011;1232;48.008;7.864;2022-07-29T09:29:25;19.10;;;17.80;;
1939;SDS011;1232;48.008;7.864;2022-07-29T09:31:52;19.80;;;18.00;;
1939;SDS011;1232;48.008;7.864;2022-07-29T09:34:25;19.40;;;18.13;;
1939;SDS011;1232;48.008;7.864;2022-07-29T09:36:53;19.03;;;17.57;;
1939;SDS011;1232;48.008;7.864;2022-07-29T09:39:33;19.63;;;18.30;;
1939;SDS011;1232;48.008;7.864;2022-07-29T09:42:05;20.10;;;18.80;;
1939;SDS011;1232;48.008;7.864;2022-07-29T09:44:41;19.10;;;17.90;;
1939;SDS011;1232;48.008;7.864;2022-07-29T09:47:07;18.27;;;17.27;;
1939;SDS011;1232;48.008;7.864;2022-07-29T09:49:50;18.77;;;17.57;;
1939;SDS011;1232;48.008;7.864;2022-07-29T09:52:22;18.80;;;17.70;;
1939;SDS011;1232;48.008;7.864;2022-07-29T09:54:48;18.60;;;17.37;;
1939;SDS011;1232;48.008;7.864;2022-07-29T09:57:25;18.50;;;17.30;;
1939;SDS011;1232;48.008;7.864;2022-07-29T09:59:59;18.30;;;17.20;;
1939;SDS011;1232;48.008;7.864;2022-07-29T10:02:30;19.07;;;17.73;;
1939;SDS011;1232;48.008;7.864;2022-07-29T10:04:57;19.63;;;17.70;;
1939;SDS011;1232;48.008;7.864;2022-07-29T10:07:24;19.10;;;17.90;;
1939;SDS011;1232;48.008;7.864;2022-07-29T10:09:54;18.67;;;17.43;;
1939;SDS011;1232;48.008;7.864;2022-07-29T10:12:21;19.40;;;18.10;;
1939;SDS011;1232;48.008;7.864;2022-07-29T10:14:47;18.87;;;17.57;;
1939;SDS011;1232;48.008;7.864;2022-07-29T10:17:13;18.60;;;17.30;;
1939;SDS011;1232;48.008;7.864;2022-07-29T10:19:40;19.10;;;17.73;;
1939;SDS011;1232;48.008;7.864;2022-07-29T10:22:07;19.10;;;17.27;;
1939;SDS011;1232;48.008;7.864;2022-07-29T10:24:34;18.37;;;17.17;;
1939;SDS011;1232;48.008;7.864;2022-07-29T10:27:01;18.90;;;17.60;;
1939;SDS011;1232;48.008;7.864;2022-07-29T10:29:28;18.90;;;17.50;;
1939;SDS011;1232;48.008;7.864;2022-07-29T10:35:06;19.67;;;18.47;;
1939;SDS011;1232;48.008;7.864;2022-07-29T10:40:22;19.37;;;18.07;;
1939;SDS011;1232;48.008;7.864;2022-07-29T10:43:16;18.57;;;17.27;;
1939;SDS011;1232;48.008;7.864;2022-07-29T10:45:46;19.53;;;17.90;;
1939;SDS011;1232;48.008;7.864;2022-07-29T10:48:13;18.93;;;17.63;;
1939;SDS011;1232;48.008;7.864;2022-07-29T11:01:45;19.27;;;17.87;;
1939;SDS011;1232;48.008;7.864;2022-07-29T11:07:10;19.33;;;18.13;;
1939;SDS011;1232;48.008;7.864;2022-07-29T11:09:37;19.27;;;18.07;;
1939;SDS011;1232;48.008;7.864;2022-07-29T11:12:03;19.27;;;17.90;;
1939;SDS011;1232;48.008;7.864;2022-07-29T11:17:21;19.00;;;17.90;;
1939;SDS011;1232;48.008;7.864;2022-07-29T11:19:47;19.10;;;17.77;;
1939;SDS011;1232;48.008;7.864;2022-07-29T11:22:31;19.30;;;18.03;;
1939;SDS011;1232;48.008;7.864;2022-07-29T11:25:30;19.53;;;18.20;;
1939;SDS011;1232;48.008;7.864;2022-07-29T11:27:49;18.97;;;17.87;;
1939;SDS011;1232;48.008;7.864;2022-07-29T11:30:16;19.60;;;18.40;;
1939;SDS011;1232;48.008;7.864;2022-07-29T11:32:42;18.60;;;17.37;;
1939;SDS011;1232;48.008;7.864;2022-07-29T11:38:33;19.03;;;17.60;;
1939;SDS011;1232;48.008;7.864;2022-07-29T11:49:09;19.53;;;18.33;;
1939;SDS011;1232;48.008;7.864;2022-07-29T11:51:38;19.17;;;18.00;;
1939;SDS011;1232;48.008;7.864;2022-07-29T11:54:04;20.20;;;19.00;;
1939;SDS011;1232;48.008;7.864;2022-07-29T11:56:33;20.37;;;18.97;;
1939;SDS011;1232;48.008;7.864;2022-07-29T11:59:04;18.63;;;17.50;;
1939;SDS011;1232;48.008;7.864;2022-07-29T12:01:31;19.33;;;18.13;;
1939;SDS011;1232;48.008;7.864;2022-07-29T12:04:04;19.70;;;18.50;;
1939;SDS011;1232;48.008;7.864;2022-07-29T12:06:31;19.20;;;18.10;;
1939;SDS011;1232;48.008;7.864;2022-07-29T12:08:57;19.60;;;18.23;;
1939;SDS011;1232;48.008;7.864;2022-07-29T12:11:23;20.00;;;18.60;;
1939;SDS011;1232;48.008;7.864;2022-07-29T12:13:50;20.00;;;18.27;;
1939;SDS011;1232;48.008;7.864;2022-07-29T12:16:16;19.17;;;17.97;;
1939;SDS011;1232;48.008;7.864;2022-07-29T12:18:42;19.83;;;18.53;;
1939;SDS011;1232;48.008;7.864;2022-07-29T12:21:27;19.53;;;18.33;;
1939;SDS011;1232;48.008;7.864;2022-07-29T12:23:54;20.17;;;18.87;;
1939;SDS011;1232;48.008;7.864;2022-07-29T12:26:20;20.23;;;18.70;;
1939;SDS011;1232;48.008;7.864;2022-07-29T12:28:45;20.43;;;18.80;;
1939;SDS011;1232;48.008;7.864;2022-07-29T12:31:14;20.37;;;18.93;;
1939;SDS011;1232;48.008;7.864;2022-07-29T12:33:40;20.33;;;18.83;;
1939;SDS011;1232;48.008;7.864;2022-07-29T12:36:07;19.93;;;18.60;;
1939;SDS011;1232;48.008;7.864;2022-07-29T12:38:35;19.60;;;18.23;;
1939;SDS011;1232;48.008;7.864;2022-07-29T12:41:01;20.80;;;19.10;;
1939;SDS011;1232;48.008;7.864;2022-07-29T12:43:27;20.57;;;19.07;;
1939;SDS011;1232;48.008;7.864;2022-07-29T12:45:53;19.73;;;18.17;;
1939;SDS011;1232;48.008;7.864;2022-07-29T12:51:02;19.60;;;18.30;;
1939;SDS011;1232;48.008;7.864;2022-07-29T12:53:29;20.40;;;19.00;;
1939;SDS011;1232;48.008;7.864;2022-07-29T12:55:56;19.57;;;18.37;;
1939;SDS011;1232;48.008;7.864;2022-07-29T13:01:19;20.17;;;18.60;;
1939;SDS011;1232;48.008;7.864;2022-07-29T13:03:55;19.50;;;18.20;;
1939;SDS011;1232;48.008;7.864;2022-07-29T13:09:19;20.20;;;18.47;;
1939;SDS011;1232;48.008;7.864;2022-07-29T13:11:48;19.73;;;18.33;;
1939;SDS011;1232;48.008;7.864;2022-07-29T13:14:34;23.10;;;19.87;;
1939;SDS011;1232;48.008;7.864;2022-07-29T13:17:06;19.63;;;18.30;;
1939;SDS011;1232;48.008;7.864;2022-07-29T13:19:40;19.23;;;17.83;;
1939;SDS011;1232;48.008;7.864;2022-07-29T13:22:11;19.40;;;17.97;;
1939;SDS011;1232;48.008;7.864;2022-07-29T13:24:53;19.57;;;18.17;;
1939;SDS011;1232;48.008;7.864;2022-07-29T13:27:24;18.47;;;17.20;;
1939;SDS011;1232;48.008;7.864;2022-07-29T13:29:51;19.43;;;18.20;;
1939;SDS011;1232;48.008;7.864;2022-07-29T13:32:20;20.27;;;18.57;;
1939;SDS011;1232;48.008;7.864;2022-07-29T13:34:47;19.60;;;18.30;;
1939;SDS011;1232;48.008;7.864;2022-07-29T13:37:12;19.70;;;18.30;;
1939;SDS011;1232;48.008;7.864;2022-07-29T13:39:38;19.10;;;18.00;;
1939;SDS011;1232;48.008;7.864;2022-07-29T13:42:04;19.20;;;18.10;;
1939;SDS011;1232;48.008;7.864;2022-07-29T13:44:32;19.30;;;18.07;;
1939;SDS011;1232;48.008;7.864;2022-07-29T13:46:57;18.97;;;17.77;;
1939;SDS011;1232;48.008;7.864;2022-07-29T13:49:23;18.50;;;17.30;;
1939;SDS011;1232;48.008;7.864;2022-07-29T13:51:49;18.30;;;17.20;;
1939;SDS011;1232;48.008;7.864;2022-07-29T13:54:15;19.00;;;17.80;;
1939;SDS011;1232;48.008;7.864;2022-07-29T13:56:41;19.30;;;18.00;;
1939;SDS011;1232;48.008;7.864;2022-07-29T13:59:06;19.13;;;17.63;;
1939;SDS011;1232;48.008;7.864;2022-07-29T14:01:33;19.17;;;17.87;;
1939;SDS011;1232;48.008;7.864;2022-07-29T14:03:59;20.37;;;19.10;;
1939;SDS011;1232;48.008;7.864;2022-07-29T14:06:25;19.10;;;18.00;;
1939;SDS011;1232;48.008;7.864;2022-07-29T14:08:50;19.73;;;18.33;;
1939;SDS011;1232;48.008;7.864;2022-07-29T14:11:16;19.10;;;17.90;;
1939;SDS011;1232;48.008;7.864;2022-07-29T14:13:41;19.13;;;17.73;;
1939;SDS011;1232;48.008;7.864;2022-07-29T14:16:07;19.10;;;17.73;;
1939;SDS011;1232;48.008;7.864;2022-07-29T14:18:32;19.57;;;18.37;;
1939;SDS011;1232;48.008;7.864;2022-07-29T14:20:58;19.07;;;17.97;;
1939;SDS011;1232;48.008;7.864;2022-07-29T14:23:24;19.40;;;17.57;;
1939;SDS011;1232;48.008;7.864;2022-07-29T14:25:49;19.20;;;17.90;;
1939;SDS011;1232;48.008;7.864;2022-07-29T14:28:15;18.87;;;17.70;;
1939;SDS011;1232;48.008;7.864;2022-07-29T14:30:41;19.10;;;17.90;;
1939;SDS011;1232;48.008;7.864;2022-07-29T14:33:06;19.90;;;18.27;;
1939;SDS011;1232;48.008;7.864;2022-07-29T14:35:32;19.43;;;17.67;;
1939;SDS011;1232;48.008;7.864;2022-07-29T14:37:58;18.63;;;17.50;;
1939;SDS011;1232;48.008;7.864;2022-07-29T14:40:24;19.13;;;17.93;;
1939;SDS011;1232;48.008;7.864;2022-07-29T14:42:50;19.10;;;17.70;;
1939;SDS011;1232;48.008;7.864;2022-07-29T14:45:16;19.13;;;18.03;;
1939;SDS011;1232;48.008;7.864;2022-07-29T14:47:42;19.20;;;17.80;;
1939;SDS011;1232;48.008;7.864;2022-07-29T14:50:07;18.70;;;17.60;;
1939;SDS011;1232;48.008;7.864;2022-07-29T14:52:33;18.53;;;17.33;;
1939;SDS011;1232;48.008;7.864;2022-07-29T14:54:59;17.90;;;16.80;;
1939;SDS011;1232;48.008;7.864;2022-07-29T14:57:25;18.50;;;17.43;;
1939;SDS011;1232;48.008;7.864;2022-07-29T14:59:51;18.43;;;17.23;;
1939;SDS011;1232;48.008;7.864;2022-07-29T15:02:17;19.37;;;18.07;;
1939;SDS011;1232;48.008;7.864;2022-07-29T15:04:42;18.90;;;17.80;;
1939;SDS011;1232;48.008;7.864;2022-07-29T15:07:09;17.80;;;16.70;;
1939;SDS011;1232;48.008;7.864;2022-07-29T15:09:34;18.47;;;17.30;;
1939;SDS011;1232;48.008;7.864;2022-07-29T15:12:00;18.17;;;17.00;;
1939;SDS011;1232;48.008;7.864;2022-07-29T15:14:27;18.93;;;17.63;;
1939;SDS011;1232;48.008;7.864;2022-07-29T15:16:53;18.20;;;17.10;;
1939;SDS011;1232;48.008;7.864;2022-07-29T15:19:19;18.03;;;17.03;;
1939;SDS011;1232;48.008;7.864;2022-07-29T15:21:44;19.10;;;17.70;;
1939;SDS011;1232;48.008;7.864;2022-07-29T15:24:10;18.87;;;17.67;;
1939;SDS011;1232;48.008;7.864;2022-07-29T15:26:35;18.40;;;17.20;;
1939;SDS011;1232;48.008;7.864;2022-07-29T15:29:01;18.30;;;17.00;;
1939;SDS011;1232;48.008;7.864;2022-07-29T15:31:26;18.93;;;17.83;;
1939;SDS011;1232;48.008;7.864;2022-07-29T15:33:52;18.23;;;17.13;;
1939;SDS011;1232;48.008;7.864;2022-07-29T15:36:18;18.07;;;16.97;;
1939;SDS011;1232;48.008;7.864;2022-07-29T15:38:43;17.80;;;16.80;;
1939;SDS011;1232;48.008;7.864;2022-07-29T15:41:12;17.77;;;16.70;;
1939;SDS011;1232;48.008;7.864;2022-07-29T15:43:41;18.73;;;17.57;;
1939;SDS011;1232;48.008;7.864;2022-07-29T15:46:08;18.20;;;17.20;;
1939;SDS011;1232;48.008;7.864;2022-07-29T15:48:55;18.60;;;17.50;;
1939;SDS011;1232;48.008;7.864;2022-07-29T15:51:21;18.40;;;17.20;;
1939;SDS011;1232;48.008;7.864;2022-07-29T15:53:46;18.67;;;17.57;;
1939;SDS011;1232;48.008;7.864;2022-07-29T15:56:12;18.20;;;17.10;;
1939;SDS011;1232;48.008;7.864;2022-07-29T15:58:37;18.80;;;17.70;;
1939;SDS011;1232;48.008;7.864;2022-07-29T16:01:03;18.80;;;17.60;;
1939;SDS011;1232;48.008;7.864;2022-07-29T16:03:29;18.67;;;17.50;;
1939;SDS011;1232;48.008;7.864;2022-07-29T16:05:54;18.80;;;17.70;;
1939;SDS011;1232;48.008;7.864;2022-07-29T16:08:20;18.80;;;17.70;;
1939;SDS011;1232;48.008;7.864;2022-07-29T16:10:45;18.47;;;17.47;;
1939;SDS011;1232;48.008;7.864;2022-07-29T16:13:11;18.53;;;17.53;;
1939;SDS011;1232;48.008;7.864;2022-07-29T16:15:36;18.17;;;17.10;;
1939;SDS011;1232;48.008;7.864;2022-07-29T16:18:02;18.07;;;16.97;;
1939;SDS011;1232;48.008;7.864;2022-07-29T16:20:28;18.00;;;16.77;;
1939;SDS011;1232;48.008;7.864;2022-07-29T16:22:54;17.80;;;16.50;;
1939;SDS011;1232;48.008;7.864;2022-07-29T16:25:19;17.17;;;16.27;;
1939;SDS011;1232;48.008;7.864;2022-07-29T16:27:46;17.90;;;16.80;;
1939;SDS011;1232;48.008;7.864;2022-07-29T16:30:11;17.47;;;16.43;;
1939;SDS011;1232;48.008;7.864;2022-07-29T16:32:37;17.67;;;16.67;;
1939;SDS011;1232;48.008;7.864;2022-07-29T16:35:04;18.47;;;16.90;;
1939;SDS011;1232;48.008;7.864;2022-07-29T16:37:30;18.33;;;17.00;;
1939;SDS011;1232;48.008;7.864;2022-07-29T16:39:59;18.10;;;16.90;;
1939;SDS011;1232;48.008;7.864;2022-07-29T16:42:25;17.27;;;16.23;;
1939;SDS011;1232;48.008;7.864;2022-07-29T16:44:51;17.60;;;16.60;;
1939;SDS011;1232;48.008;7.864;2022-07-29T16:47:16;18.10;;;17.00;;
1939;SDS011;1232;48.008;7.864;2022-07-29T16:49:42;17.97;;;16.93;;
1939;SDS011;1232;48.008;7.864;2022-07-29T16:52:08;18.17;;;16.87;;
1939;SDS011;1232;48.008;7.864;2022-07-29T16:54:33;17.53;;;16.43;;
1939;SDS011;1232;48.008;7.864;2022-07-29T16:56:59;17.73;;;16.50;;
1939;SDS011;1232;48.008;7.864;2022-07-29T16:59:26;17.30;;;16.30;;
1939;SDS011;1232;48.008;7.864;2022-07-29T17:01:52;18.07;;;16.87;;
1939;SDS011;1232;48.008;7.864;2022-07-29T17:04:18;17.97;;;16.67;;
1939;SDS011;1232;48.008;7.864;2022-07-29T17:06:43;17.30;;;16.20;;
1939;SDS011;1232;48.008;7.864;2022-07-29T17:09:09;17.53;;;16.53;;
1939;SDS011;1232;48.008;7.864;2022-07-29T17:11:39;17.20;;;16.20;;
1939;SDS011;1232;48.008;7.864;2022-07-29T17:14:05;17.10;;;16.20;;
1939;SDS011;1232;48.008;7.864;2022-07-29T17:16:31;17.80;;;16.77;;
1939;SDS011;1232;48.008;7.864;2022-07-29T17:18:57;17.20;;;16.30;;
1939;SDS011;1232;48.008;7.864;2022-07-29T17:21:23;17.13;;;16.03;;
1939;SDS011;1232;48.008;7.864;2022-07-29T17:23:49;17.37;;;16.17;;
1939;SDS011;1232;48.008;7.864;2022-07-29T17:26:16;17.50;;;16.33;;
1939;SDS011;1232;48.008;7.864;2022-07-29T17:28:42;17.83;;;16.73;;
1939;SDS011;1232;48.008;7.864;2022-07-29T17:31:07;16.60;;;15.70;;
1939;SDS011;1232;48.008;7.864;2022-07-29T17:33:33;17.70;;;16.60;;
1939;SDS011;1232;48.008;7.864;2022-07-29T17:35:59;17.00;;;15.90;;
1939;SDS011;1232;48.008;7.864;2022-07-29T17:38:43;17.40;;;16.10;;
1939;SDS011;1232;48.008;7.864;2022-07-29T17:41:09;17.20;;;16.20;;
1939;SDS011;1232;48.008;7.864;2022-07-29T17:43:35;17.30;;;15.97;;
1939;SDS011;1232;48.008;7.864;2022-07-29T17:46:00;18.40;;;16.97;;
1939;SDS011;1232;48.008;7.864;2022-07-29T17:48:26;17.10;;;16.10;;
1939;SDS011;1232;48.008;7.864;2022-07-29T17:50:51;17.70;;;16.70;;
1939;SDS011;1232;48.008;7.864;2022-07-29T17:53:17;17.10;;;16.00;;
1939;SDS011;1232;48.008;7.864;2022-07-29T17:55:43;16.80;;;15.90;;
1939;SDS011;1232;48.008;7.864;2022-07-29T17:58:09;24.43;;;18.80;;
1939;SDS011;1232;48.008;7.864;2022-07-29T18:00:35;18.53;;;17.40;;
1939;SDS011;1232;48.008;7.864;2022-07-29T18:03:01;18.13;;;16.80;;
1939;SDS011;1232;48.008;7.864;2022-07-29T18:05:26;16.73;;;15.83;;
1939;SDS011;1232;48.008;7.864;2022-07-29T18:07:52;17.40;;;16.40;;
1939;SDS011;1232;48.008;7.864;2022-07-29T18:10:19;17.80;;;16.17;;
1939;SDS011;1232;48.008;7.864;2022-07-29T18:12:46;17.50;;;16.40;;
1939;SDS011;1232;48.008;7.864;2022-07-29T18:15:11;17.40;;;16.20;;
1939;SDS011;1232;48.008;7.864;2022-07-29T18:17:37;17.00;;;16.00;;
1939;SDS011;1232;48.008;7.864;2022-07-29T18:20:03;18.30;;;16.90;;
1939;SDS011;1232;48.008;7.864;2022-07-29T18:22:29;16.73;;;15.73;;
1939;SDS011;1232;48.008;7.864;2022-07-29T18:24:55;17.50;;;16.40;;
1939;SDS011;1232;48.008;7.864;2022-07-29T18:27:21;16.77;;;15.80;;
1939;SDS011;1232;48.008;7.864;2022-07-29T18:29:46;17.33;;;16.33;;
1939;SDS011;1232;48.008;7.864;2022-07-29T18:32:12;18.00;;;16.80;;
1939;SDS011;1232;48.008;7.864;2022-07-29T18:34:37;18.00;;;16.43;;
1939;SDS011;1232;48.008;7.864;2022-07-29T18:37:03;17.47;;;16.47;;
1939;SDS011;1232;48.008;7.864;2022-07-29T18:39:29;18.80;;;17.40;;
1939;SDS011;1232;48.008;7.864;2022-07-29T18:41:54;17.07;;;16.17;;
1939;SDS011;1232;48.008;7.864;2022-07-29T18:44:20;17.73;;;16.67;;
1939;SDS011;1232;48.008;7.864;2022-07-29T18:46:46;17.50;;;16.50;;
1939;SDS011;1232;48.008;7.864;2022-07-29T18:49:11;17.17;;;16.17;;
